sensor_id;sensor_type;location;lat;lon;timestamp;P1;durP1;ratioP1;P2;durP2;ratioP2
57752;SDS011;43583;53.132;6.574;2023-10-13T00:01:54;63.55;;;20.40;;
57752;SDS011;43583;53.132;6.574;2023-10-13T00:04:23;69.28;;;22.17;;
57752;SDS011;43583;53.132;6.574;2023-10-13T00:06:57;62.53;;;22.10;;
57752;SDS011;43583;53.132;6.574;2023-10-13T00:09:24;51.80;;;19.13;;
57752;SDS011;43583;53.132;6.574;2023-10-13T00:11:57;52.38;;;20.88;;
57752;SDS011;43583;53.132;6.574;2023-10-13T00:14:24;57.72;;;20.75;;
57752;SDS011;43583;53.132;6.574;2023-10-13T00:16:59;58.15;;;19.80;;
57752;SDS011;43583;53.132;6.574;2023-10-13T00:19:38;55.83;;;21.02;;
57752;SDS011;43583;53.132;6.574;2023-10-13T00:22:10;57.88;;;21.42;;
57752;SDS011;43583;53.132;6.574;2023-10-13T00:24:40;64.95;;;21.15;;
57752;SDS011;43583;53.132;6.574;2023-10-13T00:27:17;55.42;;;19.20;;
57752;SDS011;43583;53.132;6.574;2023-10-13T00:29:52;67.00;;;19.98;;
57752;SDS011;43583;53.132;6.574;2023-10-13T00:32:43;51.42;;;18.20;;
57752;SDS011;43583;53.132;6.574;2023-10-13T00:35:13;60.05;;;19.73;;
57752;SDS011;43583;53.132;6.574;2023-10-13T00:37:50;52.17;;;18.73;;
57752;SDS011;43583;53.132;6.574;2023-10-13T00:40:19;57.92;;;19.42;;
57752;SDS011;43583;53.132;6.574;2023-10-13T00:43:00;50.78;;;19.35;;
57752;SDS011;43583;53.132;6.574;2023-10-13T00:45:45;60.25;;;19.25;;
57752;SDS011;43583;53.132;6.574;2023-10-13T00:48:25;54.55;;;19.58;;
57752;SDS011;43583;53.132;6.574;2023-10-13T00:51:00;43.22;;;17.33;;
57752;SDS011;43583;53.132;6.574;2023-10-13T00:53:37;41.15;;;16.38;;
57752;SDS011;43583;53.132;6.574;2023-10-13T00:56:05;44.35;;;17.83;;
57752;SDS011;43583;53.132;6.574;2023-10-13T00:58:44;44.30;;;17.85;;
57752;SDS011;43583;53.132;6.574;2023-10-13T01:01:15;45.10;;;18.17;;
57752;SDS011;43583;53.132;6.574;2023-10-13T01:03:51;42.90;;;16.30;;
57752;SDS011;43583;53.132;6.574;2023-10-13T01:06:21;39.65;;;17.50;;
57752;SDS011;43583;53.132;6.574;2023-10-13T01:08:56;39.83;;;15.52;;
57752;SDS011;43583;53.132;6.574;2023-10-13T01:11:22;42.17;;;16.33;;
57752;SDS011;43583;53.132;6.574;2023-10-13T01:13:49;51.70;;;17.52;;
57752;SDS011;43583;53.132;6.574;2023-10-13T01:16:21;43.38;;;16.38;;
57752;SDS011;43583;53.132;6.574;2023-10-13T01:18:49;37.25;;;15.40;;
57752;SDS011;43583;53.132;6.574;2023-10-13T01:21:21;50.22;;;16.50;;
57752;SDS011;43583;53.132;6.574;2023-10-13T01:23:54;42.55;;;15.70;;
57752;SDS011;43583;53.132;6.574;2023-10-13T01:26:20;45.45;;;15.90;;
57752;SDS011;43583;53.132;6.574;2023-10-13T01:28:49;42.13;;;15.68;;
57752;SDS011;43583;53.132;6.574;2023-10-13T01:31:19;35.42;;;14.80;;
57752;SDS011;43583;53.132;6.574;2023-10-13T01:33:54;38.47;;;15.75;;
57752;SDS011;43583;53.132;6.574;2023-10-13T01:36:24;37.13;;;15.43;;
57752;SDS011;43583;53.132;6.574;2023-10-13T01:39:24;35.25;;;14.57;;
57752;SDS011;43583;53.132;6.574;2023-10-13T01:41:56;32.75;;;13.88;;
57752;SDS011;43583;53.132;6.574;2023-10-13T01:44:26;39.83;;;14.32;;
57752;SDS011;43583;53.132;6.574;2023-10-13T01:47:10;31.27;;;14.10;;
57752;SDS011;43583;53.132;6.574;2023-10-13T01:49:40;34.42;;;13.35;;
57752;SDS011;43583;53.132;6.574;2023-10-13T01:52:12;30.60;;;12.80;;
57752;SDS011;43583;53.132;6.574;2023-10-13T01:54:52;30.17;;;13.00;;
57752;SDS011;43583;53.132;6.574;2023-10-13T01:57:19;28.83;;;12.70;;
57752;SDS011;43583;53.132;6.574;2023-10-13T01:59:51;26.00;;;12.38;;
57752;SDS011;43583;53.132;6.574;2023-10-13T02:02:17;26.55;;;11.65;;
57752;SDS011;43583;53.132;6.574;2023-10-13T02:04:54;24.88;;;12.57;;
57752;SDS011;43583;53.132;6.574;2023-10-13T02:07:25;21.67;;;10.98;;
57752;SDS011;43583;53.132;6.574;2023-10-13T02:10:04;28.80;;;13.50;;
57752;SDS011;43583;53.132;6.574;2023-10-13T02:12:31;22.15;;;11.43;;
57752;SDS011;43583;53.132;6.574;2023-10-13T02:15:12;31.15;;;13.32;;
57752;SDS011;43583;53.132;6.574;2023-10-13T02:17:51;28.92;;;12.00;;
57752;SDS011;43583;53.132;6.574;2023-10-13T02:20:19;25.92;;;12.45;;
57752;SDS011;43583;53.132;6.574;2023-10-13T02:22:48;21.20;;;11.30;;
57752;SDS011;43583;53.132;6.574;2023-10-13T02:25:18;25.83;;;11.98;;
57752;SDS011;43583;53.132;6.574;2023-10-13T02:28:08;31.38;;;11.10;;
57752;SDS011;43583;53.132;6.574;2023-10-13T02:30:54;23.17;;;10.93;;
57752;SDS011;43583;53.132;6.574;2023-10-13T02:33:22;27.48;;;9.38;;
57752;SDS011;43583;53.132;6.574;2023-10-13T02:36:01;17.05;;;8.95;;
57752;SDS011;43583;53.132;6.574;2023-10-13T02:38:31;17.92;;;8.95;;
57752;SDS011;43583;53.132;6.574;2023-10-13T02:41:04;17.35;;;7.97;;
57752;SDS011;43583;53.132;6.574;2023-10-13T02:43:37;22.02;;;9.30;;
57752;SDS011;43583;53.132;6.574;2023-10-13T02:46:03;23.70;;;10.02;;
57752;SDS011;43583;53.132;6.574;2023-10-13T02:48:29;25.08;;;11.07;;
57752;SDS011;43583;53.132;6.574;2023-10-13T02:51:05;27.45;;;12.52;;
57752;SDS011;43583;53.132;6.574;2023-10-13T02:53:43;28.52;;;12.77;;
57752;SDS011;43583;53.132;6.574;2023-10-13T02:56:13;28.90;;;12.23;;
57752;SDS011;43583;53.132;6.574;2023-10-13T02:58:45;31.42;;;13.52;;
57752;SDS011;43583;53.132;6.574;2023-10-13T03:01:17;33.45;;;14.35;;
57752;SDS011;43583;53.132;6.574;2023-10-13T03:03:50;30.25;;;13.38;;
57752;SDS011;43583;53.132;6.574;2023-10-13T03:06:23;35.97;;;15.07;;
57752;SDS011;43583;53.132;6.574;2023-10-13T03:08:57;36.38;;;15.00;;
57752;SDS011;43583;53.132;6.574;2023-10-13T03:11:40;32.97;;;14.68;;
57752;SDS011;43583;53.132;6.574;2023-10-13T03:14:13;34.28;;;14.77;;
57752;SDS011;43583;53.132;6.574;2023-10-13T03:16:56;31.35;;;15.07;;
57752;SDS011;43583;53.132;6.574;2023-10-13T03:19:42;34.92;;;15.20;;
57752;SDS011;43583;53.132;6.574;2023-10-13T03:22:19;32.70;;;15.60;;
57752;SDS011;43583;53.132;6.574;2023-10-13T03:24:56;36.58;;;15.15;;
57752;SDS011;43583;53.132;6.574;2023-10-13T03:27:29;41.80;;;14.85;;
57752;SDS011;43583;53.132;6.574;2023-10-13T03:30:14;34.92;;;14.45;;
57752;SDS011;43583;53.132;6.574;2023-10-13T03:32:41;27.50;;;12.05;;
57752;SDS011;43583;53.132;6.574;2023-10-13T03:35:19;29.13;;;11.75;;
57752;SDS011;43583;53.132;6.574;2023-10-13T03:37:56;25.23;;;11.30;;
57752;SDS011;43583;53.132;6.574;2023-10-13T03:40:22;27.55;;;10.88;;
57752;SDS011;43583;53.132;6.574;2023-10-13T03:42:51;21.92;;;10.30;;
57752;SDS011;43583;53.132;6.574;2023-10-13T03:45:27;22.95;;;9.65;;
57752;SDS011;43583;53.132;6.574;2023-10-13T03:47:54;26.60;;;10.23;;
57752;SDS011;43583;53.132;6.574;2023-10-13T03:50:20;22.17;;;9.98;;
57752;SDS011;43583;53.132;6.574;2023-10-13T03:52:55;17.38;;;8.10;;
57752;SDS011;43583;53.132;6.574;2023-10-13T03:55:24;21.52;;;8.82;;
57752;SDS011;43583;53.132;6.574;2023-10-13T03:57:52;21.10;;;9.02;;
57752;SDS011;43583;53.132;6.574;2023-10-13T04:00:19;19.85;;;8.90;;
57752;SDS011;43583;53.132;6.574;2023-10-13T04:02:52;24.65;;;9.63;;
57752;SDS011;43583;53.132;6.574;2023-10-13T04:05:28;20.15;;;10.73;;
57752;SDS011;43583;53.132;6.574;2023-10-13T04:08:06;25.67;;;10.38;;
57752;SDS011;43583;53.132;6.574;2023-10-13T04:10:51;20.60;;;9.95;;
57752;SDS011;43583;53.132;6.574;2023-10-13T04:13:18;23.90;;;10.50;;
57752;SDS011;43583;53.132;6.574;2023-10-13T04:16:03;20.02;;;9.63;;
57752;SDS011;43583;53.132;6.574;2023-10-13T04:18:47;23.85;;;9.65;;
57752;SDS011;43583;53.132;6.574;2023-10-13T04:21:19;23.10;;;9.60;;
57752;SDS011;43583;53.132;6.574;2023-10-13T04:24:06;22.98;;;9.32;;
57752;SDS011;43583;53.132;6.574;2023-10-13T04:26:50;20.88;;;8.90;;
57752;SDS011;43583;53.132;6.574;2023-10-13T04:29:35;21.08;;;9.60;;
57752;SDS011;43583;53.132;6.574;2023-10-13T04:32:16;23.50;;;9.23;;
57752;SDS011;43583;53.132;6.574;2023-10-13T04:34:58;23.73;;;9.05;;
57752;SDS011;43583;53.132;6.574;2023-10-13T04:37:54;20.67;;;8.73;;
57752;SDS011;43583;53.132;6.574;2023-10-13T04:40:26;24.73;;;9.40;;
57752;SDS011;43583;53.132;6.574;2023-10-13T04:43:00;24.10;;;8.95;;
57752;SDS011;43583;53.132;6.574;2023-10-13T04:45:30;20.58;;;9.18;;
57752;SDS011;43583;53.132;6.574;2023-10-13T04:47:56;23.73;;;9.70;;
57752;SDS011;43583;53.132;6.574;2023-10-13T04:50:38;18.98;;;9.38;;
57752;SDS011;43583;53.132;6.574;2023-10-13T04:53:11;21.77;;;8.73;;
57752;SDS011;43583;53.132;6.574;2023-10-13T04:55:58;21.00;;;9.18;;
57752;SDS011;43583;53.132;6.574;2023-10-13T04:58:28;21.02;;;9.85;;
57752;SDS011;43583;53.132;6.574;2023-10-13T05:01:04;21.75;;;9.75;;
57752;SDS011;43583;53.132;6.574;2023-10-13T05:04:08;22.30;;;9.70;;
57752;SDS011;43583;53.132;6.574;2023-10-13T05:06:39;23.55;;;9.90;;
57752;SDS011;43583;53.132;6.574;2023-10-13T05:09:14;28.60;;;9.50;;
57752;SDS011;43583;53.132;6.574;2023-10-13T05:12:05;18.55;;;8.50;;
57752;SDS011;43583;53.132;6.574;2023-10-13T05:14:49;17.20;;;7.63;;
57752;SDS011;43583;53.132;6.574;2023-10-13T05:17:39;25.20;;;8.70;;
57752;SDS011;43583;53.132;6.574;2023-10-13T05:20:37;18.42;;;7.03;;
57752;SDS011;43583;53.132;6.574;2023-10-13T05:23:37;14.93;;;6.68;;
57752;SDS011;43583;53.132;6.574;2023-10-13T05:26:23;17.33;;;6.82;;
57752;SDS011;43583;53.132;6.574;2023-10-13T05:29:14;12.27;;;6.03;;
57752;SDS011;43583;53.132;6.574;2023-10-13T05:32:08;11.27;;;5.35;;
57752;SDS011;43583;53.132;6.574;2023-10-13T05:34:58;13.30;;;6.15;;
57752;SDS011;43583;53.132;6.574;2023-10-13T05:37:45;10.77;;;5.60;;
57752;SDS011;43583;53.132;6.574;2023-10-13T05:40:29;12.10;;;4.75;;
57752;SDS011;43583;53.132;6.574;2023-10-13T05:43:13;10.55;;;5.70;;
57752;SDS011;43583;53.132;6.574;2023-10-13T05:46:01;8.38;;;4.60;;
57752;SDS011;43583;53.132;6.574;2023-10-13T05:48:46;9.38;;;4.85;;
57752;SDS011;43583;53.132;6.574;2023-10-13T05:51:31;5.97;;;3.58;;
57752;SDS011;43583;53.132;6.574;2023-10-13T05:54:15;6.93;;;4.13;;
57752;SDS011;43583;53.132;6.574;2023-10-13T05:56:41;8.18;;;3.90;;
57752;SDS011;43583;53.132;6.574;2023-10-13T05:59:27;9.25;;;4.55;;
57752;SDS011;43583;53.132;6.574;2023-10-13T06:02:12;6.85;;;3.58;;
57752;SDS011;43583;53.132;6.574;2023-10-13T06:05:00;5.28;;;3.10;;
57752;SDS011;43583;53.132;6.574;2023-10-13T06:07:45;3.63;;;2.47;;
57752;SDS011;43583;53.132;6.574;2023-10-13T06:10:29;5.15;;;2.72;;
57752;SDS011;43583;53.132;6.574;2023-10-13T06:13:13;7.43;;;3.65;;
57752;SDS011;43583;53.132;6.574;2023-10-13T06:15:58;5.88;;;3.55;;
57752;SDS011;43583;53.132;6.574;2023-10-13T06:18:42;7.28;;;3.50;;
57752;SDS011;43583;53.132;6.574;2023-10-13T06:21:26;7.53;;;3.70;;
57752;SDS011;43583;53.132;6.574;2023-10-13T06:24:10;5.57;;;3.35;;
57752;SDS011;43583;53.132;6.574;2023-10-13T06:26:54;8.07;;;3.67;;
57752;SDS011;43583;53.132;6.574;2023-10-13T06:29:38;4.22;;;2.70;;
57752;SDS011;43583;53.132;6.574;2023-10-13T06:32:04;5.18;;;3.10;;
57752;SDS011;43583;53.132;6.574;2023-10-13T06:34:36;4.78;;;2.67;;
57752;SDS011;43583;53.132;6.574;2023-10-13T06:37:12;4.95;;;3.00;;
57752;SDS011;43583;53.132;6.574;2023-10-13T06:39:52;5.25;;;3.13;;
57752;SDS011;43583;53.132;6.574;2023-10-13T06:42:24;6.07;;;3.63;;
57752;SDS011;43583;53.132;6.574;2023-10-13T06:44:57;6.93;;;3.10;;
57752;SDS011;43583;53.132;6.574;2023-10-13T06:47:25;4.57;;;2.45;;
57752;SDS011;43583;53.132;6.574;2023-10-13T06:49:52;6.93;;;3.05;;
57752;SDS011;43583;53.132;6.574;2023-10-13T06:52:22;4.75;;;2.38;;
57752;SDS011;43583;53.132;6.574;2023-10-13T06:54:54;5.57;;;2.65;;
57752;SDS011;43583;53.132;6.574;2023-10-13T06:57:20;4.50;;;2.60;;
57752;SDS011;43583;53.132;6.574;2023-10-13T06:59:46;3.97;;;2.92;;
57752;SDS011;43583;53.132;6.574;2023-10-13T07:02:12;5.20;;;2.80;;
57752;SDS011;43583;53.132;6.574;2023-10-13T07:07:13;4.15;;;1.90;;
57752;SDS011;43583;53.132;6.574;2023-10-13T07:09:43;4.05;;;1.70;;
57752;SDS011;43583;53.132;6.574;2023-10-13T07:12:29;4.40;;;1.88;;
57752;SDS011;43583;53.132;6.574;2023-10-13T07:14:58;3.08;;;1.45;;
57752;SDS011;43583;53.132;6.574;2023-10-13T07:17:36;3.83;;;1.45;;
57752;SDS011;43583;53.132;6.574;2023-10-13T07:20:06;6.18;;;2.20;;
57752;SDS011;43583;53.132;6.574;2023-10-13T07:22:51;3.85;;;1.45;;
57752;SDS011;43583;53.132;6.574;2023-10-13T07:25:28;4.03;;;1.70;;
57752;SDS011;43583;53.132;6.574;2023-10-13T07:27:58;5.00;;;1.40;;
57752;SDS011;43583;53.132;6.574;2023-10-13T07:30:24;6.97;;;1.63;;
57752;SDS011;43583;53.132;6.574;2023-10-13T07:32:51;7.97;;;1.80;;
57752;SDS011;43583;53.132;6.574;2023-10-13T07:35:18;4.25;;;1.30;;
57752;SDS011;43583;53.132;6.574;2023-10-13T07:37:45;6.00;;;1.52;;
57752;SDS011;43583;53.132;6.574;2023-10-13T07:40:17;5.05;;;2.28;;
57752;SDS011;43583;53.132;6.574;2023-10-13T07:42:52;3.40;;;1.38;;
57752;SDS011;43583;53.132;6.574;2023-10-13T07:45:26;9.63;;;2.03;;
57752;SDS011;43583;53.132;6.574;2023-10-13T07:48:01;6.18;;;1.58;;
57752;SDS011;43583;53.132;6.574;2023-10-13T07:50:33;3.70;;;1.80;;
57752;SDS011;43583;53.132;6.574;2023-10-13T07:53:00;5.07;;;2.33;;
57752;SDS011;43583;53.132;6.574;2023-10-13T07:55:46;5.38;;;1.90;;
57752;SDS011;43583;53.132;6.574;2023-10-13T07:58:12;7.53;;;1.88;;
57752;SDS011;43583;53.132;6.574;2023-10-13T08:00:39;6.03;;;1.70;;
57752;SDS011;43583;53.132;6.574;2023-10-13T08:03:10;3.15;;;1.73;;
57752;SDS011;43583;53.132;6.574;2023-10-13T08:05:51;8.68;;;2.13;;
57752;SDS011;43583;53.132;6.574;2023-10-13T08:08:35;4.72;;;1.52;;
57752;SDS011;43583;53.132;6.574;2023-10-13T08:11:05;5.00;;;1.55;;
57752;SDS011;43583;53.132;6.574;2023-10-13T08:16:19;5.90;;;2.40;;
57752;SDS011;43583;53.132;6.574;2023-10-13T08:18:52;7.35;;;2.00;;
57752;SDS011;43583;53.132;6.574;2023-10-13T08:21:18;9.18;;;1.98;;
57752;SDS011;43583;53.132;6.574;2023-10-13T08:23:59;7.05;;;2.80;;
57752;SDS011;43583;53.132;6.574;2023-10-13T08:26:32;10.15;;;2.30;;
57752;SDS011;43583;53.132;6.574;2023-10-13T08:29:16;11.00;;;2.65;;
57752;SDS011;43583;53.132;6.574;2023-10-13T08:31:48;9.88;;;2.78;;
57752;SDS011;43583;53.132;6.574;2023-10-13T08:34:32;8.43;;;2.08;;
57752;SDS011;43583;53.132;6.574;2023-10-13T08:37:25;6.70;;;2.20;;
57752;SDS011;43583;53.132;6.574;2023-10-13T08:39:52;5.82;;;2.75;;
57752;SDS011;43583;53.132;6.574;2023-10-13T08:42:29;9.73;;;2.45;;
57752;SDS011;43583;53.132;6.574;2023-10-13T08:45:22;8.35;;;2.33;;
57752;SDS011;43583;53.132;6.574;2023-10-13T08:50:43;8.70;;;2.97;;
57752;SDS011;43583;53.132;6.574;2023-10-13T08:53:20;9.65;;;3.22;;
57752;SDS011;43583;53.132;6.574;2023-10-13T08:55:56;10.90;;;3.15;;
57752;SDS011;43583;53.132;6.574;2023-10-13T08:58:48;11.02;;;2.85;;
57752;SDS011;43583;53.132;6.574;2023-10-13T09:01:21;9.18;;;3.22;;
57752;SDS011;43583;53.132;6.574;2023-10-13T09:04:08;12.63;;;2.95;;
57752;SDS011;43583;53.132;6.574;2023-10-13T09:09:23;6.65;;;3.08;;
57752;SDS011;43583;53.132;6.574;2023-10-13T09:11:54;7.38;;;2.92;;
57752;SDS011;43583;53.132;6.574;2023-10-13T09:14:34;7.22;;;3.60;;
57752;SDS011;43583;53.132;6.574;2023-10-13T09:17:06;15.43;;;3.92;;
57752;SDS011;43583;53.132;6.574;2023-10-13T09:19:46;9.23;;;4.22;;
57752;SDS011;43583;53.132;6.574;2023-10-13T09:22:19;9.20;;;3.60;;
57752;SDS011;43583;53.132;6.574;2023-10-13T09:25:04;8.13;;;3.67;;
57752;SDS011;43583;53.132;6.574;2023-10-13T09:27:31;7.22;;;3.70;;
57752;SDS011;43583;53.132;6.574;2023-10-13T09:30:04;6.90;;;3.70;;
57752;SDS011;43583;53.132;6.574;2023-10-13T09:32:46;8.10;;;3.60;;
57752;SDS011;43583;53.132;6.574;2023-10-13T09:37:46;10.20;;;4.28;;
57752;SDS011;43583;53.132;6.574;2023-10-13T09:40:14;9.85;;;4.35;;
57752;SDS011;43583;53.132;6.574;2023-10-13T09:42:52;12.35;;;3.42;;
57752;SDS011;43583;53.132;6.574;2023-10-13T09:45:27;8.00;;;3.00;;
57752;SDS011;43583;53.132;6.574;2023-10-13T09:47:59;10.18;;;4.15;;
57752;SDS011;43583;53.132;6.574;2023-10-13T09:50:34;7.82;;;3.20;;
57752;SDS011;43583;53.132;6.574;2023-10-13T09:53:09;10.55;;;3.25;;
57752;SDS011;43583;53.132;6.574;2023-10-13T09:55:40;9.15;;;2.85;;
57752;SDS011;43583;53.132;6.574;2023-10-13T09:58:10;11.25;;;3.15;;
57752;SDS011;43583;53.132;6.574;2023-10-13T10:00:42;7.95;;;2.20;;
57752;SDS011;43583;53.132;6.574;2023-10-13T10:03:23;10.88;;;2.80;;
57752;SDS011;43583;53.132;6.574;2023-10-13T10:06:01;8.85;;;3.85;;
57752;SDS011;43583;53.132;6.574;2023-10-13T10:08:50;6.97;;;2.88;;
57752;SDS011;43583;53.132;6.574;2023-10-13T10:16:37;4.32;;;2.20;;
57752;SDS011;43583;53.132;6.574;2023-10-13T10:19:14;9.13;;;2.13;;
57752;SDS011;43583;53.132;6.574;2023-10-13T10:21:41;9.27;;;2.58;;
57752;SDS011;43583;53.132;6.574;2023-10-13T10:24:20;6.55;;;3.65;;
57752;SDS011;43583;53.132;6.574;2023-10-13T10:26:56;6.03;;;2.15;;
57752;SDS011;43583;53.132;6.574;2023-10-13T10:29:22;8.50;;;3.47;;
57752;SDS011;43583;53.132;6.574;2023-10-13T10:31:48;4.43;;;2.13;;
57752;SDS011;43583;53.132;6.574;2023-10-13T10:34:30;7.63;;;2.20;;
57752;SDS011;43583;53.132;6.574;2023-10-13T10:38:19;7.68;;;2.03;;
57752;SDS011;43583;53.132;6.574;2023-10-13T10:41:25;15.90;;;3.28;;
57752;SDS011;43583;53.132;6.574;2023-10-13T10:52:55;11.82;;;1.80;;
57752;SDS011;43583;53.132;6.574;2023-10-13T10:59:03;6.28;;;1.90;;
57752;SDS011;43583;53.132;6.574;2023-10-13T11:05:45;10.05;;;2.38;;
57752;SDS011;43583;53.132;6.574;2023-10-13T11:12:58;11.35;;;2.17;;
57752;SDS011;43583;53.132;6.574;2023-10-13T11:15:41;5.00;;;1.83;;
57752;SDS011;43583;53.132;6.574;2023-10-13T11:18:09;6.10;;;1.70;;
57752;SDS011;43583;53.132;6.574;2023-10-13T11:20:42;9.02;;;2.38;;
57752;SDS011;43583;53.132;6.574;2023-10-13T11:23:18;8.98;;;2.42;;
57752;SDS011;43583;53.132;6.574;2023-10-13T11:25:57;7.35;;;1.70;;
57752;SDS011;43583;53.132;6.574;2023-10-13T11:28:28;4.18;;;1.40;;
57752;SDS011;43583;53.132;6.574;2023-10-13T11:30:54;6.07;;;2.08;;
57752;SDS011;43583;53.132;6.574;2023-10-13T11:33:52;9.10;;;2.15;;
57752;SDS011;43583;53.132;6.574;2023-10-13T11:36:21;9.10;;;2.17;;
57752;SDS011;43583;53.132;6.574;2023-10-13T11:38:49;13.35;;;3.00;;
57752;SDS011;43583;53.132;6.574;2023-10-13T11:41:16;4.93;;;1.75;;
57752;SDS011;43583;53.132;6.574;2023-10-13T12:05:56;8.35;;;2.38;;
57752;SDS011;43583;53.132;6.574;2023-10-13T12:09:16;13.40;;;3.05;;
57752;SDS011;43583;53.132;6.574;2023-10-13T12:16:06;7.68;;;1.58;;
57752;SDS011;43583;53.132;6.574;2023-10-13T12:19:49;6.35;;;1.83;;
57752;SDS011;43583;53.132;6.574;2023-10-13T12:40:18;5.53;;;2.05;;
57752;SDS011;43583;53.132;6.574;2023-10-13T12:43:35;11.55;;;3.15;;
57752;SDS011;43583;53.132;6.574;2023-10-13T12:50:13;9.35;;;3.20;;
57752;SDS011;43583;53.132;6.574;2023-10-13T13:01:34;11.13;;;3.10;;
57752;SDS011;43583;53.132;6.574;2023-10-13T13:13:21;5.47;;;2.90;;
57752;SDS011;43583;53.132;6.574;2023-10-13T13:20:55;11.15;;;4.18;;
57752;SDS011;43583;53.132;6.574;2023-10-13T13:24:27;10.18;;;3.20;;
57752;SDS011;43583;53.132;6.574;2023-10-13T13:27:25;11.30;;;3.20;;
57752;SDS011;43583;53.132;6.574;2023-10-13T13:37:37;6.97;;;3.17;;
57752;SDS011;43583;53.132;6.574;2023-10-13T13:49:18;16.98;;;3.95;;
57752;SDS011;43583;53.132;6.574;2023-10-13T13:52:17;9.00;;;4.15;;
57752;SDS011;43583;53.132;6.574;2023-10-13T13:54:53;11.38;;;3.72;;
57752;SDS011;43583;53.132;6.574;2023-10-13T13:57:43;6.82;;;3.20;;
57752;SDS011;43583;53.132;6.574;2023-10-13T14:00:17;10.55;;;3.67;;
57752;SDS011;43583;53.132;6.574;2023-10-13T14:03:26;6.25;;;3.92;;
57752;SDS011;43583;53.132;6.574;2023-10-13T14:09:13;9.68;;;3.65;;
57752;SDS011;43583;53.132;6.574;2023-10-13T14:12:01;11.32;;;4.10;;
57752;SDS011;43583;53.132;6.574;2023-10-13T14:15:41;12.15;;;3.08;;
57752;SDS011;43583;53.132;6.574;2023-10-13T14:18:36;6.53;;;3.60;;
57752;SDS011;43583;53.132;6.574;2023-10-13T14:21:23;8.15;;;3.10;;
57752;SDS011;43583;53.132;6.574;2023-10-13T14:37:28;10.00;;;3.55;;
57752;SDS011;43583;53.132;6.574;2023-10-13T14:39:58;10.32;;;3.65;;
57752;SDS011;43583;53.132;6.574;2023-10-13T14:42:30;11.20;;;4.32;;
57752;SDS011;43583;53.132;6.574;2023-10-13T14:45:06;7.80;;;3.38;;
57752;SDS011;43583;53.132;6.574;2023-10-13T14:47:45;11.57;;;3.47;;
57752;SDS011;43583;53.132;6.574;2023-10-13T14:50:41;8.93;;;4.05;;
57752;SDS011;43583;53.132;6.574;2023-10-13T14:53:18;10.52;;;3.60;;
57752;SDS011;43583;53.132;6.574;2023-10-13T14:56:05;8.00;;;3.13;;
57752;SDS011;43583;53.132;6.574;2023-10-13T14:58:45;8.63;;;2.92;;
57752;SDS011;43583;53.132;6.574;2023-10-13T15:01:37;6.85;;;3.33;;
57752;SDS011;43583;53.132;6.574;2023-10-13T15:04:11;9.30;;;3.90;;
57752;SDS011;43583;53.132;6.574;2023-10-13T15:06:51;9.57;;;3.75;;
57752;SDS011;43583;53.132;6.574;2023-10-13T15:09:30;9.68;;;3.72;;
57752;SDS011;43583;53.132;6.574;2023-10-13T15:11:56;11.48;;;3.83;;
57752;SDS011;43583;53.132;6.574;2023-10-13T15:14:23;11.13;;;3.90;;
57752;SDS011;43583;53.132;6.574;2023-10-13T15:17:45;9.90;;;3.78;;
57752;SDS011;43583;53.132;6.574;2023-10-13T15:20:31;9.27;;;3.88;;
57752;SDS011;43583;53.132;6.574;2023-10-13T15:23:41;16.02;;;4.75;;
57752;SDS011;43583;53.132;6.574;2023-10-13T15:26:45;13.85;;;4.43;;
57752;SDS011;43583;53.132;6.574;2023-10-13T15:30:10;11.15;;;4.40;;
57752;SDS011;43583;53.132;6.574;2023-10-13T15:36:42;11.50;;;4.40;;
57752;SDS011;43583;53.132;6.574;2023-10-13T15:39:27;12.35;;;4.03;;
57752;SDS011;43583;53.132;6.574;2023-10-13T15:42:00;12.75;;;4.38;;
57752;SDS011;43583;53.132;6.574;2023-10-13T15:44:52;9.15;;;4.82;;
57752;SDS011;43583;53.132;6.574;2023-10-13T15:47:23;12.98;;;5.07;;
57752;SDS011;43583;53.132;6.574;2023-10-13T15:50:17;13.18;;;4.50;;
57752;SDS011;43583;53.132;6.574;2023-10-13T15:52:49;15.50;;;5.25;;
57752;SDS011;43583;53.132;6.574;2023-10-13T15:55:16;11.48;;;4.32;;
57752;SDS011;43583;53.132;6.574;2023-10-13T15:57:48;12.48;;;5.22;;
57752;SDS011;43583;53.132;6.574;2023-10-13T16:00:20;11.13;;;5.00;;
57752;SDS011;43583;53.132;6.574;2023-10-13T16:02:56;9.15;;;4.40;;
57752;SDS011;43583;53.132;6.574;2023-10-13T16:05:33;10.77;;;5.00;;
57752;SDS011;43583;53.132;6.574;2023-10-13T16:08:10;9.93;;;5.47;;
57752;SDS011;43583;53.132;6.574;2023-10-13T16:10:39;9.32;;;4.05;;
57752;SDS011;43583;53.132;6.574;2023-10-13T16:13:06;8.40;;;4.47;;
57752;SDS011;43583;53.132;6.574;2023-10-13T16:15:47;7.97;;;4.17;;
57752;SDS011;43583;53.132;6.574;2023-10-13T16:18:30;12.38;;;5.40;;
57752;SDS011;43583;53.132;6.574;2023-10-13T16:24:32;7.97;;;3.33;;
57752;SDS011;43583;53.132;6.574;2023-10-13T16:27:07;12.02;;;4.43;;
57752;SDS011;43583;53.132;6.574;2023-10-13T16:33:15;9.20;;;3.58;;
57752;SDS011;43583;53.132;6.574;2023-10-13T16:35:44;9.05;;;3.05;;
57752;SDS011;43583;53.132;6.574;2023-10-13T16:38:36;7.35;;;3.35;;
57752;SDS011;43583;53.132;6.574;2023-10-13T16:43:37;5.63;;;2.45;;
57752;SDS011;43583;53.132;6.574;2023-10-13T16:46:10;9.30;;;2.97;;
57752;SDS011;43583;53.132;6.574;2023-10-13T16:48:40;8.32;;;2.90;;
57752;SDS011;43583;53.132;6.574;2023-10-13T16:51:07;6.35;;;2.47;;
57752;SDS011;43583;53.132;6.574;2023-10-13T16:53:40;5.10;;;2.25;;
57752;SDS011;43583;53.132;6.574;2023-10-13T16:56:07;8.90;;;2.25;;
57752;SDS011;43583;53.132;6.574;2023-10-13T16:58:33;4.72;;;1.50;;
57752;SDS011;43583;53.132;6.574;2023-10-13T17:01:02;7.88;;;1.70;;
57752;SDS011;43583;53.132;6.574;2023-10-13T17:03:44;6.63;;;1.60;;
57752;SDS011;43583;53.132;6.574;2023-10-13T17:06:20;5.78;;;1.45;;
57752;SDS011;43583;53.132;6.574;2023-10-13T17:08:58;5.70;;;2.07;;
57752;SDS011;43583;53.132;6.574;2023-10-13T17:11:25;7.80;;;1.90;;
57752;SDS011;43583;53.132;6.574;2023-10-13T17:14:17;5.22;;;1.35;;
57752;SDS011;43583;53.132;6.574;2023-10-13T17:17:11;6.65;;;1.67;;
57752;SDS011;43583;53.132;6.574;2023-10-13T17:19:45;4.35;;;1.77;;
57752;SDS011;43583;53.132;6.574;2023-10-13T17:22:15;5.88;;;1.75;;
57752;SDS011;43583;53.132;6.574;2023-10-13T17:25:27;6.13;;;1.83;;
57752;SDS011;43583;53.132;6.574;2023-10-13T17:28:07;4.35;;;2.22;;
57752;SDS011;43583;53.132;6.574;2023-10-13T17:31:29;6.22;;;1.90;;
57752;SDS011;43583;53.132;6.574;2023-10-13T17:34:41;8.83;;;2.63;;
57752;SDS011;43583;53.132;6.574;2023-10-13T17:37:30;10.02;;;3.45;;
57752;SDS011;43583;53.132;6.574;2023-10-13T17:40:16;7.30;;;2.97;;
57752;SDS011;43583;53.132;6.574;2023-10-13T17:43:48;9.93;;;3.33;;
57752;SDS011;43583;53.132;6.574;2023-10-13T17:49:15;12.35;;;3.70;;
57752;SDS011;43583;53.132;6.574;2023-10-13T17:51:46;6.93;;;2.92;;
57752;SDS011;43583;53.132;6.574;2023-10-13T17:54:17;9.25;;;4.10;;
57752;SDS011;43583;53.132;6.574;2023-10-13T17:56:45;7.35;;;2.92;;
57752;SDS011;43583;53.132;6.574;2023-10-13T17:59:19;11.57;;;3.60;;
57752;SDS011;43583;53.132;6.574;2023-10-13T18:02:08;9.73;;;3.63;;
57752;SDS011;43583;53.132;6.574;2023-10-13T18:04:47;10.50;;;3.22;;
57752;SDS011;43583;53.132;6.574;2023-10-13T18:07:58;8.85;;;3.42;;
57752;SDS011;43583;53.132;6.574;2023-10-13T18:10:27;10.38;;;2.92;;
57752;SDS011;43583;53.132;6.574;2023-10-13T18:13:32;5.40;;;1.85;;
57752;SDS011;43583;53.132;6.574;2023-10-13T18:22:46;10.85;;;3.17;;
57752;SDS011;43583;53.132;6.574;2023-10-13T18:25:15;11.25;;;2.83;;
57752;SDS011;43583;53.132;6.574;2023-10-13T18:28:05;6.30;;;2.08;;
57752;SDS011;43583;53.132;6.574;2023-10-13T18:37:22;4.70;;;2.30;;
57752;SDS011;43583;53.132;6.574;2023-10-13T18:43:03;13.52;;;2.90;;